sensor_id;sensor_type;location;lat;lon;timestamp;temperature;humidity
16321;DHT22;8269;50.990;4.494;2023-07-31T00:00:06;16.30;99.90
16321;DHT22;8269;50.990;4.494;2023-07-31T00:02:31;16.30;99.90
16321;DHT22;8269;50.990;4.494;2023-07-31T00:04:57;16.30;99.90
16321;DHT22;8269;50.990;4.494;2023-07-31T00:07:23;16.40;99.90
16321;DHT22;8269;50.990;4.494;2023-07-31T00:09:48;16.40;99.90
16321;DHT22;8269;50.990;4.494;2023-07-31T00:12:14;16.40;99.90
16321;DHT22;8269;50.990;4.494;2023-07-31T00:14:39;16.40;99.90
16321;DHT22;8269;50.990;4.494;2023-07-31T00:17:05;16.40;99.90
16321;DHT22;8269;50.990;4.494;2023-07-31T00:19:31;16.40;99.90
16321;DHT22;8269;50.990;4.494;2023-07-31T00:21:56;16.40;99.90
16321;DHT22;8269;50.990;4.494;2023-07-31T00:24:22;16.40;99.90
16321;DHT22;8269;50.990;4.494;2023-07-31T00:26:47;16.40;99.90
16321;DHT22;8269;50.990;4.494;2023-07-31T00:29:13;16.50;99.90
16321;DHT22;8269;50.990;4.494;2023-07-31T00:31:39;16.50;99.90
16321;DHT22;8269;50.990;4.494;2023-07-31T00:34:04;16.50;99.90
16321;DHT22;8269;50.990;4.494;2023-07-31T00:36:30;16.50;99.90
16321;DHT22;8269;50.990;4.494;2023-07-31T00:38:55;16.50;99.90
16321;DHT22;8269;50.990;4.494;2023-07-31T00:41:21;16.50;99.90
16321;DHT22;8269;50.990;4.494;2023-07-31T00:43:47;16.60;99.90
16321;DHT22;8269;50.990;4.494;2023-07-31T00:46:12;16.60;99.90
16321;DHT22;8269;50.990;4.494;2023-07-31T00:48:40;16.60;99.90
16321;DHT22;8269;50.990;4.494;2023-07-31T00:51:07;16.60;99.90
16321;DHT22;8269;50.990;4.494;2023-07-31T00:53:34;16.60;99.90
16321;DHT22;8269;50.990;4.494;2023-07-31T00:56:00;16.60;99.90
16321;DHT22;8269;50.990;4.494;2023-07-31T00:58:25;16.60;99.90
16321;DHT22;8269;50.990;4.494;2023-07-31T01:00:51;16.60;99.90
16321;DHT22;8269;50.990;4.494;2023-07-31T01:03:17;16.60;99.90
16321;DHT22;8269;50.990;4.494;2023-07-31T01:11:19;16.60;99.90
16321;DHT22;8269;50.990;4.494;2023-07-31T01:13:48;16.60;99.90
16321;DHT22;8269;50.990;4.494;2023-07-31T01:16:13;16.60;99.90
16321;DHT22;8269;50.990;4.494;2023-07-31T01:18:39;16.60;99.90
16321;DHT22;8269;50.990;4.494;2023-07-31T01:27:12;16.60;99.90
16321;DHT22;8269;50.990;4.494;2023-07-31T01:29:46;16.60;99.90
16321;DHT22;8269;50.990;4.494;2023-07-31T01:32:12;16.60;99.90
16321;DHT22;8269;50.990;4.494;2023-07-31T01:34:39;16.60;99.90
16321;DHT22;8269;50.990;4.494;2023-07-31T01:37:06;16.60;99.90
16321;DHT22;8269;50.990;4.494;2023-07-31T01:39:32;16.60;99.90
16321;DHT22;8269;50.990;4.494;2023-07-31T01:41:59;16.70;99.90
16321;DHT22;8269;50.990;4.494;2023-07-31T01:44:25;16.70;99.90
16321;DHT22;8269;50.990;4.494;2023-07-31T01:46:50;16.70;99.90
16321;DHT22;8269;50.990;4.494;2023-07-31T01:49:16;16.70;99.90
16321;DHT22;8269;50.990;4.494;2023-07-31T01:51:41;16.80;99.90
16321;DHT22;8269;50.990;4.494;2023-07-31T01:54:07;16.80;99.90
16321;DHT22;8269;50.990;4.494;2023-07-31T01:56:33;16.80;99.90
16321;DHT22;8269;50.990;4.494;2023-07-31T01:58:58;16.80;99.90
16321;DHT22;8269;50.990;4.494;2023-07-31T02:01:24;16.80;99.90
16321;DHT22;8269;50.990;4.494;2023-07-31T02:03:49;16.80;99.90
16321;DHT22;8269;50.990;4.494;2023-07-31T02:06:15;16.80;99.90
16321;DHT22;8269;50.990;4.494;2023-07-31T02:08:41;16.90;99.90
16321;DHT22;8269;50.990;4.494;2023-07-31T02:11:06;16.80;99.90
16321;DHT22;8269;50.990;4.494;2023-07-31T02:13:32;16.80;99.90
16321;DHT22;8269;50.990;4.494;2023-07-31T02:15:57;16.80;99.90
16321;DHT22;8269;50.990;4.494;2023-07-31T02:18:23;16.90;99.90
16321;DHT22;8269;50.990;4.494;2023-07-31T02:20:50;16.90;99.90
16321;DHT22;8269;50.990;4.494;2023-07-31T02:23:19;16.90;99.90
16321;DHT22;8269;50.990;4.494;2023-07-31T02:25:45;16.90;99.90
16321;DHT22;8269;50.990;4.494;2023-07-31T02:28:11;16.90;99.90
16321;DHT22;8269;50.990;4.494;2023-07-31T02:30:38;16.90;99.90
16321;DHT22;8269;50.990;4.494;2023-07-31T02:33:04;16.90;99.90
16321;DHT22;8269;50.990;4.494;2023-07-31T02:35:30;16.90;99.90
16321;DHT22;8269;50.990;4.494;2023-07-31T02:37:56;16.90;99.90
16321;DHT22;8269;50.990;4.494;2023-07-31T02:40:21;16.90;99.90
16321;DHT22;8269;50.990;4.494;2023-07-31T02:42:47;16.90;99.90
16321;DHT22;8269;50.990;4.494;2023-07-31T02:45:13;16.90;99.90
16321;DHT22;8269;50.990;4.494;2023-07-31T02:47:38;16.90;99.90
16321;DHT22;8269;50.990;4.494;2023-07-31T02:50:04;16.90;99.90
16321;DHT22;8269;50.990;4.494;2023-07-31T02:52:30;16.90;99.90
16321;DHT22;8269;50.990;4.494;2023-07-31T02:54:57;17.00;99.90
16321;DHT22;8269;50.990;4.494;2023-07-31T02:57:23;17.00;99.90
16321;DHT22;8269;50.990;4.494;2023-07-31T02:59:49;17.00;99.90
16321;DHT22;8269;50.990;4.494;2023-07-31T03:02:14;17.00;99.90
16321;DHT22;8269;50.990;4.494;2023-07-31T03:04:40;17.00;99.90
16321;DHT22;8269;50.990;4.494;2023-07-31T03:07:06;16.90;99.90
16321;DHT22;8269;50.990;4.494;2023-07-31T03:09:32;17.00;99.90
16321;DHT22;8269;50.990;4.494;2023-07-31T03:11:57;17.00;99.90
16321;DHT22;8269;50.990;4.494;2023-07-31T03:14:23;17.00;99.90
16321;DHT22;8269;50.990;4.494;2023-07-31T03:16:49;17.00;99.90
16321;DHT22;8269;50.990;4.494;2023-07-31T03:19:15;17.00;99.90
16321;DHT22;8269;50.990;4.494;2023-07-31T03:21:40;17.00;99.90
16321;DHT22;8269;50.990;4.494;2023-07-31T03:24:06;17.00;99.90
16321;DHT22;8269;50.990;4.494;2023-07-31T03:26:32;17.00;99.90
16321;DHT22;8269;50.990;4.494;2023-07-31T03:28:58;17.00;99.90
16321;DHT22;8269;50.990;4.494;2023-07-31T03:31:24;16.90;99.90
16321;DHT22;8269;50.990;4.494;2023-07-31T03:33:49;17.00;99.90
16321;DHT22;8269;50.990;4.494;2023-07-31T03:36:15;17.00;99.90
16321;DHT22;8269;50.990;4.494;2023-07-31T03:38:41;17.00;99.90
16321;DHT22;8269;50.990;4.494;2023-07-31T03:41:07;16.90;99.90
16321;DHT22;8269;50.990;4.494;2023-07-31T03:43:33;16.80;99.90
16321;DHT22;8269;50.990;4.494;2023-07-31T03:46:01;16.80;99.90
16321;DHT22;8269;50.990;4.494;2023-07-31T03:48:28;16.70;99.90
16321;DHT22;8269;50.990;4.494;2023-07-31T03:50:54;16.70;99.90
16321;DHT22;8269;50.990;4.494;2023-07-31T03:53:20;16.70;99.90
16321;DHT22;8269;50.990;4.494;2023-07-31T03:55:46;16.60;99.90
16321;DHT22;8269;50.990;4.494;2023-07-31T03:58:12;16.60;99.90
16321;DHT22;8269;50.990;4.494;2023-07-31T04:00:39;16.50;99.90
16321;DHT22;8269;50.990;4.494;2023-07-31T04:03:05;16.50;99.90
16321;DHT22;8269;50.990;4.494;2023-07-31T04:05:32;16.50;99.90
16321;DHT22;8269;50.990;4.494;2023-07-31T04:07:58;16.50;99.90
16321;DHT22;8269;50.990;4.494;2023-07-31T04:10:23;16.50;99.90
16321;DHT22;8269;50.990;4.494;2023-07-31T04:12:49;16.40;99.90
16321;DHT22;8269;50.990;4.494;2023-07-31T04:15:15;16.40;99.90
16321;DHT22;8269;50.990;4.494;2023-07-31T04:17:41;16.40;99.90
16321;DHT22;8269;50.990;4.494;2023-07-31T04:20:07;16.40;99.90
16321;DHT22;8269;50.990;4.494;2023-07-31T04:22:33;16.30;99.90
16321;DHT22;8269;50.990;4.494;2023-07-31T04:24:58;16.40;99.90
16321;DHT22;8269;50.990;4.494;2023-07-31T04:27:25;16.30;99.90
16321;DHT22;8269;50.990;4.494;2023-07-31T04:29:50;16.30;99.90
16321;DHT22;8269;50.990;4.494;2023-07-31T04:32:16;16.30;99.90
16321;DHT22;8269;50.990;4.494;2023-07-31T04:34:42;16.30;99.90
16321;DHT22;8269;50.990;4.494;2023-07-31T04:37:08;16.30;99.90
16321;DHT22;8269;50.990;4.494;2023-07-31T04:39:35;16.30;99.90
16321;DHT22;8269;50.990;4.494;2023-07-31T04:42:00;16.30;99.90
16321;DHT22;8269;50.990;4.494;2023-07-31T04:44:26;16.30;99.90
16321;DHT22;8269;50.990;4.494;2023-07-31T04:46:52;16.30;99.90
16321;DHT22;8269;50.990;4.494;2023-07-31T04:49:19;16.30;99.90
16321;DHT22;8269;50.990;4.494;2023-07-31T04:51:44;16.30;99.90
16321;DHT22;8269;50.990;4.494;2023-07-31T04:54:10;16.30;99.90
16321;DHT22;8269;50.990;4.494;2023-07-31T04:56:38;16.30;99.90
16321;DHT22;8269;50.990;4.494;2023-07-31T04:59:03;16.30;99.90
16321;DHT22;8269;50.990;4.494;2023-07-31T05:01:29;16.40;99.90
16321;DHT22;8269;50.990;4.494;2023-07-31T05:03:55;16.40;99.90
16321;DHT22;8269;50.990;4.494;2023-07-31T05:06:20;16.40;99.90
16321;DHT22;8269;50.990;4.494;2023-07-31T05:08:46;16.40;99.90
16321;DHT22;8269;50.990;4.494;2023-07-31T05:11:12;16.40;99.90
16321;DHT22;8269;50.990;4.494;2023-07-31T05:13:37;16.40;99.90
16321;DHT22;8269;50.990;4.494;2023-07-31T05:16:03;16.40;99.90
16321;DHT22;8269;50.990;4.494;2023-07-31T05:18:29;16.40;99.90
16321;DHT22;8269;50.990;4.494;2023-07-31T05:20:55;16.40;99.90
16321;DHT22;8269;50.990;4.494;2023-07-31T05:23:20;16.40;99.90
16321;DHT22;8269;50.990;4.494;2023-07-31T05:25:46;16.40;99.90
16321;DHT22;8269;50.990;4.494;2023-07-31T05:28:12;16.40;99.90
16321;DHT22;8269;50.990;4.494;2023-07-31T05:30:38;16.30;99.90
16321;DHT22;8269;50.990;4.494;2023-07-31T05:33:03;16.30;99.90
16321;DHT22;8269;50.990;4.494;2023-07-31T05:35:30;16.30;99.90
16321;DHT22;8269;50.990;4.494;2023-07-31T05:37:59;16.30;99.90
16321;DHT22;8269;50.990;4.494;2023-07-31T05:40:25;16.30;99.90
16321;DHT22;8269;50.990;4.494;2023-07-31T05:42:51;16.20;99.90
16321;DHT22;8269;50.990;4.494;2023-07-31T05:45:17;16.20;99.90
16321;DHT22;8269;50.990;4.494;2023-07-31T05:47:43;16.30;99.90
16321;DHT22;8269;50.990;4.494;2023-07-31T05:50:09;16.20;99.90
16321;DHT22;8269;50.990;4.494;2023-07-31T05:52:36;16.20;99.90
16321;DHT22;8269;50.990;4.494;2023-07-31T05:55:03;16.20;99.90
16321;DHT22;8269;50.990;4.494;2023-07-31T05:57:29;16.20;99.90
16321;DHT22;8269;50.990;4.494;2023-07-31T05:59:54;15.70;99.90
16321;DHT22;8269;50.990;4.494;2023-07-31T06:02:20;16.30;99.90
16321;DHT22;8269;50.990;4.494;2023-07-31T06:04:46;16.30;99.90
16321;DHT22;8269;50.990;4.494;2023-07-31T06:07:11;16.30;99.90
16321;DHT22;8269;50.990;4.494;2023-07-31T06:09:37;16.40;99.90
16321;DHT22;8269;50.990;4.494;2023-07-31T06:12:03;16.40;99.90
16321;DHT22;8269;50.990;4.494;2023-07-31T06:14:29;16.40;99.90
16321;DHT22;8269;50.990;4.494;2023-07-31T06:16:54;16.30;99.90
16321;DHT22;8269;50.990;4.494;2023-07-31T06:19:20;16.30;99.90
16321;DHT22;8269;50.990;4.494;2023-07-31T06:21:46;16.40;99.90
16321;DHT22;8269;50.990;4.494;2023-07-31T06:24:12;16.30;99.90
16321;DHT22;8269;50.990;4.494;2023-07-31T06:26:38;16.40;99.90
16321;DHT22;8269;50.990;4.494;2023-07-31T06:29:04;16.40;99.90
16321;DHT22;8269;50.990;4.494;2023-07-31T06:31:29;16.40;99.90
16321;DHT22;8269;50.990;4.494;2023-07-31T06:33:55;16.40;99.90
16321;DHT22;8269;50.990;4.494;2023-07-31T06:36:21;16.40;99.90
16321;DHT22;8269;50.990;4.494;2023-07-31T06:38:47;16.40;99.90
16321;DHT22;8269;50.990;4.494;2023-07-31T06:41:13;16.50;99.90
16321;DHT22;8269;50.990;4.494;2023-07-31T06:43:39;16.60;99.90
16321;DHT22;8269;50.990;4.494;2023-07-31T06:46:07;16.60;99.90
16321;DHT22;8269;50.990;4.494;2023-07-31T06:48:33;16.70;99.90
16321;DHT22;8269;50.990;4.494;2023-07-31T06:51:00;16.80;99.90
16321;DHT22;8269;50.990;4.494;2023-07-31T06:53:26;16.80;99.90
16321;DHT22;8269;50.990;4.494;2023-07-31T06:55:51;16.80;99.90
16321;DHT22;8269;50.990;4.494;2023-07-31T06:58:17;16.90;99.90
16321;DHT22;8269;50.990;4.494;2023-07-31T07:00:43;16.90;99.90
16321;DHT22;8269;50.990;4.494;2023-07-31T07:03:09;17.00;99.90
16321;DHT22;8269;50.990;4.494;2023-07-31T07:05:34;17.10;99.90
16321;DHT22;8269;50.990;4.494;2023-07-31T07:08:00;17.20;99.90
16321;DHT22;8269;50.990;4.494;2023-07-31T07:10:26;17.20;99.90
16321;DHT22;8269;50.990;4.494;2023-07-31T07:12:52;17.20;99.90
16321;DHT22;8269;50.990;4.494;2023-07-31T07:15:18;17.20;99.90
16321;DHT22;8269;50.990;4.494;2023-07-31T07:17:43;17.30;99.90
16321;DHT22;8269;50.990;4.494;2023-07-31T07:20:09;17.30;99.90
16321;DHT22;8269;50.990;4.494;2023-07-31T07:22:35;17.40;99.90
16321;DHT22;8269;50.990;4.494;2023-07-31T07:25:01;17.50;99.90
16321;DHT22;8269;50.990;4.494;2023-07-31T07:27:27;17.50;99.90
16321;DHT22;8269;50.990;4.494;2023-07-31T07:29:53;17.50;99.90
16321;DHT22;8269;50.990;4.494;2023-07-31T07:32:19;17.60;99.90
16321;DHT22;8269;50.990;4.494;2023-07-31T07:34:47;17.60;99.90
16321;DHT22;8269;50.990;4.494;2023-07-31T07:37:12;17.50;99.90
16321;DHT22;8269;50.990;4.494;2023-07-31T07:39:47;17.50;99.90
16321;DHT22;8269;50.990;4.494;2023-07-31T07:42:14;17.50;99.90
16321;DHT22;8269;50.990;4.494;2023-07-31T07:44:39;17.50;99.90
16321;DHT22;8269;50.990;4.494;2023-07-31T07:47:05;17.50;99.90
16321;DHT22;8269;50.990;4.494;2023-07-31T07:49:35;17.50;99.90
16321;DHT22;8269;50.990;4.494;2023-07-31T07:52:01;17.50;99.90
16321;DHT22;8269;50.990;4.494;2023-07-31T07:54:27;17.40;99.90
16321;DHT22;8269;50.990;4.494;2023-07-31T07:56:53;17.40;99.90
16321;DHT22;8269;50.990;4.494;2023-07-31T07:59:18;17.50;99.90
16321;DHT22;8269;50.990;4.494;2023-07-31T08:01:44;17.50;99.90
16321;DHT22;8269;50.990;4.494;2023-07-31T08:04:10;17.50;99.90
16321;DHT22;8269;50.990;4.494;2023-07-31T08:06:35;17.60;99.90
16321;DHT22;8269;50.990;4.494;2023-07-31T08:09:01;17.70;99.90
16321;DHT22;8269;50.990;4.494;2023-07-31T08:11:34;17.80;99.90
16321;DHT22;8269;50.990;4.494;2023-07-31T08:14:01;17.90;99.90
16321;DHT22;8269;50.990;4.494;2023-07-31T08:16:27;18.00;99.90
16321;DHT22;8269;50.990;4.494;2023-07-31T08:18:55;18.20;99.90
16321;DHT22;8269;50.990;4.494;2023-07-31T08:21:21;18.20;99.90
16321;DHT22;8269;50.990;4.494;2023-07-31T08:23:47;18.20;99.90
16321;DHT22;8269;50.990;4.494;2023-07-31T08:26:17;18.30;99.90
16321;DHT22;8269;50.990;4.494;2023-07-31T08:28:43;18.40;99.90
16321;DHT22;8269;50.990;4.494;2023-07-31T08:31:12;18.40;99.90
16321;DHT22;8269;50.990;4.494;2023-07-31T08:33:38;18.30;99.90
16321;DHT22;8269;50.990;4.494;2023-07-31T08:36:04;18.30;99.90
16321;DHT22;8269;50.990;4.494;2023-07-31T08:38:30;18.20;99.90
16321;DHT22;8269;50.990;4.494;2023-07-31T08:40:59;18.30;99.90
16321;DHT22;8269;50.990;4.494;2023-07-31T08:43:26;18.30;99.90
16321;DHT22;8269;50.990;4.494;2023-07-31T08:45:54;18.20;99.90
16321;DHT22;8269;50.990;4.494;2023-07-31T08:48:22;18.20;99.90
16321;DHT22;8269;50.990;4.494;2023-07-31T08:50:50;18.10;99.90
16321;DHT22;8269;50.990;4.494;2023-07-31T08:53:16;18.10;99.90
16321;DHT22;8269;50.990;4.494;2023-07-31T08:55:44;18.20;99.90
16321;DHT22;8269;50.990;4.494;2023-07-31T08:58:10;18.30;99.90
16321;DHT22;8269;50.990;4.494;2023-07-31T09:00:38;18.50;99.90
16321;DHT22;8269;50.990;4.494;2023-07-31T09:03:11;18.60;99.90
16321;DHT22;8269;50.990;4.494;2023-07-31T09:05:41;18.40;99.90
16321;DHT22;8269;50.990;4.494;2023-07-31T09:08:09;18.40;99.90
16321;DHT22;8269;50.990;4.494;2023-07-31T09:10:35;18.30;99.90
16321;DHT22;8269;50.990;4.494;2023-07-31T09:13:02;18.30;99.90
16321;DHT22;8269;50.990;4.494;2023-07-31T09:15:28;18.40;99.90
16321;DHT22;8269;50.990;4.494;2023-07-31T09:18:01;18.50;99.90
16321;DHT22;8269;50.990;4.494;2023-07-31T09:20:27;18.60;99.90
16321;DHT22;8269;50.990;4.494;2023-07-31T09:22:53;18.60;99.90
16321;DHT22;8269;50.990;4.494;2023-07-31T09:25:22;18.70;99.90
16321;DHT22;8269;50.990;4.494;2023-07-31T09:27:49;18.60;99.90
16321;DHT22;8269;50.990;4.494;2023-07-31T09:30:15;18.80;99.90
16321;DHT22;8269;50.990;4.494;2023-07-31T09:32:43;18.90;99.90
16321;DHT22;8269;50.990;4.494;2023-07-31T09:38:05;19.40;99.90
16321;DHT22;8269;50.990;4.494;2023-07-31T09:40:39;19.70;99.90
16321;DHT22;8269;50.990;4.494;2023-07-31T09:43:07;19.60;99.90
16321;DHT22;8269;50.990;4.494;2023-07-31T09:45:38;19.40;99.90
16321;DHT22;8269;50.990;4.494;2023-07-31T09:48:23;19.30;99.90
16321;DHT22;8269;50.990;4.494;2023-07-31T09:50:52;19.40;99.90
16321;DHT22;8269;50.990;4.494;2023-07-31T09:53:19;19.40;99.90
16321;DHT22;8269;50.990;4.494;2023-07-31T09:55:44;19.40;99.90
16321;DHT22;8269;50.990;4.494;2023-07-31T09:58:11;19.40;99.90
16321;DHT22;8269;50.990;4.494;2023-07-31T10:00:38;19.50;99.90
16321;DHT22;8269;50.990;4.494;2023-07-31T10:03:10;19.40;99.90
16321;DHT22;8269;50.990;4.494;2023-07-31T10:05:38;19.20;99.90
16321;DHT22;8269;50.990;4.494;2023-07-31T10:08:07;19.10;99.90
16321;DHT22;8269;50.990;4.494;2023-07-31T10:10:37;19.00;99.90
16321;DHT22;8269;50.990;4.494;2023-07-31T10:13:06;19.00;99.90
16321;DHT22;8269;50.990;4.494;2023-07-31T10:15:32;19.00;99.90
16321;DHT22;8269;50.990;4.494;2023-07-31T10:17:58;19.00;99.90
16321;DHT22;8269;50.990;4.494;2023-07-31T10:20:24;19.00;99.90
16321;DHT22;8269;50.990;4.494;2023-07-31T10:22:51;18.90;99.90
16321;DHT22;8269;50.990;4.494;2023-07-31T10:25:18;19.00;99.90
16321;DHT22;8269;50.990;4.494;2023-07-31T10:27:47;19.20;99.90
16321;DHT22;8269;50.990;4.494;2023-07-31T10:30:15;19.40;99.90
16321;DHT22;8269;50.990;4.494;2023-07-31T10:32:43;19.50;99.90
16321;DHT22;8269;50.990;4.494;2023-07-31T10:35:09;19.60;99.90
16321;DHT22;8269;50.990;4.494;2023-07-31T10:37:40;19.60;99.90
16321;DHT22;8269;50.990;4.494;2023-07-31T10:40:12;19.30;99.90
16321;DHT22;8269;50.990;4.494;2023-07-31T10:42:45;19.20;99.90
16321;DHT22;8269;50.990;4.494;2023-07-31T10:45:12;19.20;99.90
16321;DHT22;8269;50.990;4.494;2023-07-31T10:50:22;19.20;99.90
16321;DHT22;8269;50.990;4.494;2023-07-31T10:52:51;19.20;99.90
16321;DHT22;8269;50.990;4.494;2023-07-31T10:55:28;19.20;99.90
16321;DHT22;8269;50.990;4.494;2023-07-31T10:57:56;19.20;99.90
16321;DHT22;8269;50.990;4.494;2023-07-31T11:00:27;19.30;99.90
16321;DHT22;8269;50.990;4.494;2023-07-31T11:03:17;19.50;99.90
16321;DHT22;8269;50.990;4.494;2023-07-31T11:05:53;19.60;99.90
16321;DHT22;8269;50.990;4.494;2023-07-31T11:08:26;19.70;99.90
16321;DHT22;8269;50.990;4.494;2023-07-31T11:11:06;19.70;99.90
16321;DHT22;8269;50.990;4.494;2023-07-31T11:16:07;19.80;99.90
16321;DHT22;8269;50.990;4.494;2023-07-31T11:18:32;19.70;99.90
16321;DHT22;8269;50.990;4.494;2023-07-31T11:20:58;19.90;99.90
16321;DHT22;8269;50.990;4.494;2023-07-31T11:23:24;20.00;99.90
16321;DHT22;8269;50.990;4.494;2023-07-31T11:28:17;20.30;99.90
16321;DHT22;8269;50.990;4.494;2023-07-31T11:30:45;20.40;99.90
16321;DHT22;8269;50.990;4.494;2023-07-31T11:33:12;20.30;99.90
16321;DHT22;8269;50.990;4.494;2023-07-31T11:35:47;20.40;99.90
16321;DHT22;8269;50.990;4.494;2023-07-31T11:41:01;20.20;99.90
16321;DHT22;8269;50.990;4.494;2023-07-31T11:43:33;20.30;99.90
16321;DHT22;8269;50.990;4.494;2023-07-31T11:46:00;20.50;99.90
16321;DHT22;8269;50.990;4.494;2023-07-31T11:48:33;20.70;99.90
16321;DHT22;8269;50.990;4.494;2023-07-31T11:51:04;20.70;99.90
16321;DHT22;8269;50.990;4.494;2023-07-31T11:53:49;20.60;99.90
16321;DHT22;8269;50.990;4.494;2023-07-31T11:56:20;20.50;99.90
16321;DHT22;8269;50.990;4.494;2023-07-31T11:58:52;20.40;99.90
16321;DHT22;8269;50.990;4.494;2023-07-31T12:01:19;20.30;99.90
16321;DHT22;8269;50.990;4.494;2023-07-31T12:03:46;20.20;99.90
16321;DHT22;8269;50.990;4.494;2023-07-31T12:06:15;20.20;99.90
16321;DHT22;8269;50.990;4.494;2023-07-31T12:08:41;20.30;99.90
16321;DHT22;8269;50.990;4.494;2023-07-31T12:11:09;20.30;99.90
16321;DHT22;8269;50.990;4.494;2023-07-31T12:13:38;20.30;99.90
16321;DHT22;8269;50.990;4.494;2023-07-31T12:16:04;20.30;99.90
16321;DHT22;8269;50.990;4.494;2023-07-31T12:18:35;20.40;99.90
16321;DHT22;8269;50.990;4.494;2023-07-31T12:21:04;20.50;99.90
16321;DHT22;8269;50.990;4.494;2023-07-31T12:23:34;20.40;99.90
16321;DHT22;8269;50.990;4.494;2023-07-31T12:26:11;20.50;99.90
16321;DHT22;8269;50.990;4.494;2023-07-31T12:28:42;20.50;99.90
16321;DHT22;8269;50.990;4.494;2023-07-31T12:31:11;20.40;99.90
16321;DHT22;8269;50.990;4.494;2023-07-31T12:33:38;20.40;99.90
16321;DHT22;8269;50.990;4.494;2023-07-31T12:36:09;20.40;99.90
16321;DHT22;8269;50.990;4.494;2023-07-31T12:38:35;20.40;99.90
16321;DHT22;8269;50.990;4.494;2023-07-31T12:43:27;20.80;99.90
16321;DHT22;8269;50.990;4.494;2023-07-31T12:48:20;20.80;99.90
16321;DHT22;8269;50.990;4.494;2023-07-31T12:55:38;20.60;99.90
16321;DHT22;8269;50.990;4.494;2023-07-31T12:58:04;20.60;99.90
16321;DHT22;8269;50.990;4.494;2023-07-31T13:00:29;20.70;99.90
16321;DHT22;8269;50.990;4.494;2023-07-31T13:02:55;20.70;99.90
16321;DHT22;8269;50.990;4.494;2023-07-31T13:05:21;20.80;99.90
16321;DHT22;8269;50.990;4.494;2023-07-31T13:07:47;20.60;99.90
16321;DHT22;8269;50.990;4.494;2023-07-31T13:10:13;20.60;99.90
16321;DHT22;8269;50.990;4.494;2023-07-31T13:12:39;20.50;99.90
16321;DHT22;8269;50.990;4.494;2023-07-31T13:15:05;20.50;99.90
16321;DHT22;8269;50.990;4.494;2023-07-31T13:17:31;20.40;99.90
16321;DHT22;8269;50.990;4.494;2023-07-31T13:22:23;20.20;99.90
16321;DHT22;8269;50.990;4.494;2023-07-31T13:24:49;20.10;99.90
16321;DHT22;8269;50.990;4.494;2023-07-31T13:27:15;20.10;99.90
16321;DHT22;8269;50.990;4.494;2023-07-31T13:29:44;20.00;99.90
16321;DHT22;8269;50.990;4.494;2023-07-31T13:32:10;19.80;99.90
16321;DHT22;8269;50.990;4.494;2023-07-31T13:34:35;19.50;99.90
16321;DHT22;8269;50.990;4.494;2023-07-31T13:39:28;19.00;99.90
16321;DHT22;8269;50.990;4.494;2023-07-31T13:56:34;18.40;99.90
16321;DHT22;8269;50.990;4.494;2023-07-31T13:59:00;18.60;99.90
16321;DHT22;8269;50.990;4.494;2023-07-31T14:01:26;18.50;99.90
16321;DHT22;8269;50.990;4.494;2023-07-31T14:03:52;18.50;99.90
16321;DHT22;8269;50.990;4.494;2023-07-31T14:06:18;18.40;99.90
16321;DHT22;8269;50.990;4.494;2023-07-31T14:08:44;18.40;99.90
16321;DHT22;8269;50.990;4.494;2023-07-31T14:11:09;18.40;99.90
16321;DHT22;8269;50.990;4.494;2023-07-31T14:13:35;18.40;99.90
16321;DHT22;8269;50.990;4.494;2023-07-31T14:16:01;18.40;99.90
16321;DHT22;8269;50.990;4.494;2023-07-31T14:18:26;18.30;99.90
16321;DHT22;8269;50.990;4.494;2023-07-31T14:31:26;18.20;99.90
16321;DHT22;8269;50.990;4.494;2023-07-31T14:33:51;18.00;99.90
16321;DHT22;8269;50.990;4.494;2023-07-31T14:36:17;18.00;99.90
16321;DHT22;8269;50.990;4.494;2023-07-31T14:38:43;17.90;99.90
16321;DHT22;8269;50.990;4.494;2023-07-31T14:41:08;17.90;99.90
16321;DHT22;8269;50.990;4.494;2023-07-31T14:43:34;17.90;99.90
16321;DHT22;8269;50.990;4.494;2023-07-31T14:45:59;17.90;99.90
16321;DHT22;8269;50.990;4.494;2023-07-31T14:48:26;17.90;99.90
16321;DHT22;8269;50.990;4.494;2023-07-31T14:50:52;17.90;99.90
16321;DHT22;8269;50.990;4.494;2023-07-31T14:53:18;17.80;99.90
16321;DHT22;8269;50.990;4.494;2023-07-31T14:55:44;17.80;99.90
16321;DHT22;8269;50.990;4.494;2023-07-31T14:58:09;17.80;99.90
16321;DHT22;8269;50.990;4.494;2023-07-31T15:00:36;17.90;99.90
16321;DHT22;8269;50.990;4.494;2023-07-31T15:03:02;17.90;99.90
16321;DHT22;8269;50.990;4.494;2023-07-31T15:05:28;17.80;99.90
16321;DHT22;8269;50.990;4.494;2023-07-31T15:07:54;17.80;99.90
16321;DHT22;8269;50.990;4.494;2023-07-31T15:10:19;17.80;99.90
16321;DHT22;8269;50.990;4.494;2023-07-31T15:12:46;17.80;99.90
16321;DHT22;8269;50.990;4.494;2023-07-31T15:15:11;17.80;99.90
16321;DHT22;8269;50.990;4.494;2023-07-31T15:17:37;17.80;99.90
16321;DHT22;8269;50.990;4.494;2023-07-31T15:20:03;17.80;99.90
16321;DHT22;8269;50.990;4.494;2023-07-31T15:22:29;17.80;99.90
16321;DHT22;8269;50.990;4.494;2023-07-31T15:24:56;17.80;99.90
16321;DHT22;8269;50.990;4.494;2023-07-31T15:27:22;17.80;99.90
16321;DHT22;8269;50.990;4.494;2023-07-31T15:29:49;17.70;99.90
16321;DHT22;8269;50.990;4.494;2023-07-31T15:32:17;17.70;99.90
16321;DHT22;8269;50.990;4.494;2023-07-31T15:34:43;17.80;99.90
16321;DHT22;8269;50.990;4.494;2023-07-31T15:37:09;17.80;99.90
16321;DHT22;8269;50.990;4.494;2023-07-31T15:39:35;17.80;99.90
16321;DHT22;8269;50.990;4.494;2023-07-31T15:42:00;17.80;99.90
16321;DHT22;8269;50.990;4.494;2023-07-31T15:44:26;17.80;99.90
16321;DHT22;8269;50.990;4.494;2023-07-31T15:46:52;17.80;99.90
16321;DHT22;8269;50.990;4.494;2023-07-31T15:49:17;17.80;99.90
16321;DHT22;8269;50.990;4.494;2023-07-31T15:51:43;17.90;99.90
16321;DHT22;8269;50.990;4.494;2023-07-31T15:54:09;17.90;99.90
16321;DHT22;8269;50.990;4.494;2023-07-31T15:56:34;17.90;99.90
16321;DHT22;8269;50.990;4.494;2023-07-31T15:59:01;17.90;99.90
16321;DHT22;8269;50.990;4.494;2023-07-31T16:01:28;17.90;99.90
16321;DHT22;8269;50.990;4.494;2023-07-31T16:03:54;17.90;99.90
16321;DHT22;8269;50.990;4.494;2023-07-31T16:06:19;18.00;99.90
16321;DHT22;8269;50.990;4.494;2023-07-31T16:08:45;18.00;99.90
16321;DHT22;8269;50.990;4.494;2023-07-31T16:11:11;18.00;99.90
16321;DHT22;8269;50.990;4.494;2023-07-31T16:13:37;17.90;99.90
16321;DHT22;8269;50.990;4.494;2023-07-31T16:16:03;17.90;99.90
16321;DHT22;8269;50.990;4.494;2023-07-31T16:18:29;17.90;99.90
16321;DHT22;8269;50.990;4.494;2023-07-31T16:20:54;17.80;99.90
16321;DHT22;8269;50.990;4.494;2023-07-31T16:23:21;17.80;99.90
16321;DHT22;8269;50.990;4.494;2023-07-31T16:25:47;17.80;99.90
16321;DHT22;8269;50.990;4.494;2023-07-31T16:28:13;17.80;99.90
16321;DHT22;8269;50.990;4.494;2023-07-31T16:30:38;17.80;99.90
16321;DHT22;8269;50.990;4.494;2023-07-31T16:33:04;17.80;99.90
16321;DHT22;8269;50.990;4.494;2023-07-31T16:35:30;17.80;99.90
16321;DHT22;8269;50.990;4.494;2023-07-31T16:37:56;17.80;99.90
16321;DHT22;8269;50.990;4.494;2023-07-31T16:40:21;17.80;99.90
16321;DHT22;8269;50.990;4.494;2023-07-31T16:42:47;17.90;99.90
16321;DHT22;8269;50.990;4.494;2023-07-31T16:45:13;17.90;99.90